Hite, Utah
Current Conditions -  °F | °C
As of 8:55 PM on Saturday 20 Dec 2014 (Local Time) from KBDG Reporting Station
Overcast Overcast  
Wind Chill: 32°   Ceiling: 7000
Heat Index: 32°   Visibility: 10mi
Dew Point: 31°   Wind: 0mph
Humidity: 98%   Direction: NA
Pressure: 30.18"   Gusts: NA
Location:  37.6208°N, 109.479°W
Report Text: KBDG 210355Z AUTO 00000KT 10SM SCT060 OVC070 00/00 A3018 RMK AO1 T10021005
Loading
Personal Weather Stations






























Interactive Weather Map New forecast layout! Learn more

10-Day Weather Forecast

Advertisements
Track Severe Weather on mobile